Time;durP1;ratioP1;P1;durP2;ratioP2;P2;SDS_P1;SDS_P2;PMS_P1;PMS_P2;Temp;Humidity;BMP_temperature;BMP_pressure;BME280_temperature;BME280_humidity;BME280_pressure;Samples;Min_cycle;Max_cycle;Signal;HPM_P1;HPM_P2
2023/05/21 00:04:51;;;;;;;;;;;;;;;14.59;100.00;95270.81;10477675;28;2001;-69
2023/05/21 00:09:53;;;;;;;;;;;;;;;14.47;100.00;95267.88;10481229;28;1858;-70
2023/05/21 00:14:56;;;;;;;;;;;;;;;14.52;100.00;95269.66;10476172;28;1977;-71
2023/05/21 00:19:58;;;;;;;;;;;;;;;14.38;100.00;95258.91;10482642;28;1917;-70
2023/05/21 00:25:01;;;;;;;;;;;;;;;14.24;100.00;95255.47;10475701;28;1906;-70
2023/05/21 00:30:03;;;;;;;;;;;;;;;14.17;100.00;95247.81;10475456;28;2030;-69
2023/05/21 00:35:06;;;;;;;;;;;;;;;14.10;100.00;95246.66;10478222;28;1889;-70
2023/05/21 00:40:08;;;;;;;;;;;;;;;14.05;100.00;95248.34;10483970;28;4644;-71
2023/05/21 00:45:11;;;;;;;;;;;;;;;13.96;100.00;95244.81;10483781;28;1955;-78
2023/05/21 00:50:14;;;;;;;;;;;;;;;13.91;100.00;95242.22;10478220;28;1882;-70
2023/05/21 00:55:16;;;;;;;;;;;;;;;13.98;100.00;95236.38;10474755;28;1893;-70
2023/05/21 01:00:18;;;;;;;;;;;;;;;13.96;100.00;95228.59;10477603;28;1971;-70
2023/05/21 01:05:21;;;;;;;;;;;;;;;13.97;100.00;95232.88;10484147;28;1960;-70
2023/05/21 01:10:24;;;;;;;;;;;;;;;13.94;100.00;95230.81;10482755;28;1965;-71
2023/05/21 01:15:26;;;;;;;;;;;;;;;13.92;100.00;95238.41;10475425;28;1975;-70
2023/05/21 01:20:30;;;;;;;;;;;;;;;13.96;100.00;95231.31;10475004;28;2092;-69
2023/05/21 01:25:33;;;;;;;;;;;;;;;13.92;100.00;95224.91;10479631;28;2023;-69
2023/05/21 01:30:36;;;;;;;;;;;;;;;13.78;100.00;95234.97;10477243;28;2047;-70
2023/05/21 01:35:38;;;;;;;;;;;;;;;13.83;100.00;95232.16;10483029;28;2011;-71
2023/05/21 01:40:41;;;;;;;;;;;;;;;13.83;100.00;95220.56;10480599;28;4517;-70
2023/05/21 01:45:43;;;;;;;;;;;;;;;13.75;100.00;95222.09;10480911;28;1978;-70
2023/05/21 01:50:46;;;;;;;;;;;;;;;13.60;100.00;95217.84;10478533;28;1939;-70
2023/05/21 01:55:48;;;;;;;;;;;;;;;13.48;100.00;95226.47;10478436;28;2280;-69
2023/05/21 02:00:50;;;;;;;;;;;;;;;13.32;100.00;95217.16;10477540;28;1938;-69
2023/05/21 02:05:54;;;;;;;;;;;;;;;13.37;100.00;95222.44;10475233;28;1998;-69
2023/05/21 02:10:57;;;;;;;;;;;;;;;13.32;100.00;95216.34;10483314;28;1929;-69
2023/05/21 02:16:00;;;;;;;;;;;;;;;13.22;100.00;95225.44;10474159;28;1972;-70
2023/05/21 02:21:02;;;;;;;;;;;;;;;13.12;100.00;95222.97;10472132;28;2045;-69
2023/05/21 02:26:05;;;;;;;;;;;;;;;13.08;100.00;95214.66;10476064;28;1919;-68
2023/05/21 02:31:07;;;;;;;;;;;;;;;13.08;100.00;95216.56;10476820;28;1908;-77
2023/05/21 02:36:11;;;;;;;;;;;;;;;13.10;100.00;95219.75;10476365;28;1928;-70
2023/05/21 02:41:14;;;;;;;;;;;;;;;13.11;100.00;95215.97;10473702;28;4444;-70
2023/05/21 02:46:16;;;;;;;;;;;;;;;12.89;100.00;95220.19;10474958;28;1987;-70
2023/05/21 02:51:19;;;;;;;;;;;;;;;12.77;100.00;95221.78;10478166;28;1992;-71
2023/05/21 02:56:22;;;;;;;;;;;;;;;12.66;100.00;95226.56;10471709;28;2237;-71
2023/05/21 03:01:24;;;;;;;;;;;;;;;12.60;100.00;95225.09;10473437;28;1976;-71
2023/05/21 03:06:27;;;;;;;;;;;;;;;12.60;100.00;95225.91;10478697;28;1881;-70
2023/05/21 03:11:29;;;;;;;;;;;;;;;12.55;100.00;95214.41;10476083;28;1994;-76
2023/05/21 03:16:34;;;;;;;;;;;;;;;12.58;100.00;95209.19;10480136;28;1905;-70
2023/05/21 03:21:36;;;;;;;;;;;;;;;12.56;100.00;95206.00;10472676;28;2116;-70
2023/05/21 03:26:39;;;;;;;;;;;;;;;12.57;100.00;95202.22;10475752;28;1943;-72
2023/05/21 03:31:41;;;;;;;;;;;;;;;12.52;100.00;95209.59;10475219;28;1959;-70
2023/05/21 03:36:44;;;;;;;;;;;;;;;12.54;100.00;95208.22;10471865;28;1884;-70
2023/05/21 03:41:46;;;;;;;;;;;;;;;12.58;100.00;95203.81;10475940;28;1973;-70
2023/05/21 03:46:48;;;;;;;;;;;;;;;12.56;100.00;95199.81;10473007;28;1957;-75
2023/05/21 03:51:51;;;;;;;;;;;;;;;12.62;100.00;95198.63;10478832;28;1915;-70
2023/05/21 03:56:53;;;;;;;;;;;;;;;12.62;100.00;95204.03;10488400;28;2140;-71
2023/05/21 04:01:56;;;;;;;;;;;;;;;12.72;100.00;95209.19;10481678;28;1982;-70
2023/05/21 04:06:59;;;;;;;;;;;;;;;12.76;100.00;95217.50;10484793;28;1838;-70
2023/05/21 04:12:01;;;;;;;;;;;;;;;12.79;100.00;95208.78;10483435;28;1963;-70
2023/05/21 04:17:04;;;;;;;;;;;;;;;12.83;100.00;95207.91;10479179;28;1999;-72
2023/05/21 04:22:06;;;;;;;;;;;;;;;12.99;100.00;95211.88;10484894;28;1984;-70
2023/05/21 04:27:09;;;;;;;;;;;;;;;13.23;100.00;95208.16;10482643;28;1912;-70
2023/05/21 04:32:13;;;;;;;;;;;;;;;13.25;100.00;95214.88;10474494;28;1944;-72
2023/05/21 04:37:17;;;;;;;;;;;;;;;13.54;100.00;95219.06;10480792;28;1972;-69
2023/05/21 04:42:22;;;;;;;;;;;;;;;13.59;100.00;95218.16;10482398;28;4596;-69
2023/05/21 04:47:25;;;;;;;;;;;;;;;13.81;100.00;95214.69;10479959;28;1928;-69
2023/05/21 04:52:27;;;;;;;;;;;;;;;14.09;100.00;95223.44;10479806;28;1997;-76
2023/05/21 04:57:30;;;;;;;;;;;;;;;14.17;100.00;95236.19;10483232;28;1995;-73
2023/05/21 05:02:32;;;;;;;;;;;;;;;14.25;100.00;95232.72;10480998;28;1919;-69
2023/05/21 05:07:35;;;;;;;;;;;;;;;14.49;100.00;95225.09;10478316;28;1903;-70
2023/05/21 05:12:37;;;;;;;;;;;;;;;14.22;100.00;95227.97;10480478;28;2016;-69
2023/05/21 05:17:40;;;;;;;;;;;;;;;14.40;100.00;95224.25;10475316;28;1996;-69
2023/05/21 05:22:42;;;;;;;;;;;;;;;14.52;100.00;95215.59;10482096;28;1981;-68
2023/05/21 05:27:45;;;;;;;;;;;;;;;14.71;100.00;95224.25;10474171;28;1880;-69
2023/05/21 05:32:47;;;;;;;;;;;;;;;14.70;100.00;95229.97;10480224;28;1983;-70
2023/05/21 05:37:50;;;;;;;;;;;;;;;14.65;100.00;95233.63;10479821;28;1964;-77
2023/05/21 05:42:53;;;;;;;;;;;;;;;14.86;100.00;95220.31;10473129;28;4362;-69
2023/05/21 05:47:55;;;;;;;;;;;;;;;14.96;100.00;95217.31;10483920;28;1924;-69
2023/05/21 05:52:57;;;;;;;;;;;;;;;15.13;100.00;95225.47;10480626;28;1964;-71
2023/05/21 05:58:00;;;;;;;;;;;;;;;15.45;100.00;95230.78;10471626;28;1967;-71
2023/05/21 06:03:02;;;;;;;;;;;;;;;15.54;100.00;95221.56;10480456;28;1909;-71
2023/05/21 06:08:05;;;;;;;;;;;;;;;15.85;100.00;95224.13;10472855;28;2090;-70
2023/05/21 06:13:07;;;;;;;;;;;;;;;16.01;100.00;95223.63;10474267;28;1980;-70
2023/05/21 06:18:10;;;;;;;;;;;;;;;16.30;100.00;95231.88;10476593;28;1844;-69
2023/05/21 06:23:13;;;;;;;;;;;;;;;16.53;100.00;95223.50;10468928;28;1979;-70
2023/05/21 06:28:16;;;;;;;;;;;;;;;16.58;100.00;95234.19;10474654;28;1924;-70
2023/05/21 06:33:18;;;;;;;;;;;;;;;16.95;100.00;95229.91;10476444;28;1888;-70
2023/05/21 06:38:21;;;;;;;;;;;;;;;17.62;100.00;95230.91;10478314;28;1893;-70
2023/05/21 06:43:24;;;;;;;;;;;;;;;18.04;100.00;95231.72;10478882;28;4513;-69
2023/05/21 06:48:26;;;;;;;;;;;;;;;18.86;100.00;95232.63;10476429;28;1904;-71
2023/05/21 06:53:28;;;;;;;;;;;;;;;19.09;100.00;95234.94;10473940;28;1963;-70
2023/05/21 06:58:31;;;;;;;;;;;;;;;19.22;100.00;95222.91;10472825;28;2076;-70
2023/05/21 07:03:33;;;;;;;;;;;;;;;19.57;100.00;95227.84;10475185;28;1994;-70
2023/05/21 07:08:35;;;;;;;;;;;;;;;20.18;98.54;95230.41;10477011;28;1821;-71
2023/05/21 07:13:38;;;;;;;;;;;;;;;20.23;94.04;95232.88;10471918;28;1920;-70
2023/05/21 07:18:40;;;;;;;;;;;;;;;20.15;89.41;95225.63;10478090;28;2054;-72
2023/05/21 07:23:43;;;;;;;;;;;;;;;20.71;88.00;95231.84;10476676;28;2311;-71
2023/05/21 07:28:45;;;;;;;;;;;;;;;21.16;80.49;95230.59;10480305;28;3235;-77
2023/05/21 07:33:48;;;;;;;;;;;;;;;21.15;79.23;95223.56;10483703;28;2071;-70
2023/05/21 07:38:50;;;;;;;;;;;;;;;21.41;75.18;95230.44;10479311;28;1940;-71
2023/05/21 07:43:52;;;;;;;;;;;;;;;21.17;79.11;95229.44;10477398;28;4473;-71
2023/05/21 07:48:55;;;;;;;;;;;;;;;21.15;72.44;95225.50;10477885;28;1959;-70
2023/05/21 07:53:57;;;;;;;;;;;;;;;20.63;75.35;95229.28;10482453;28;1966;-70
2023/05/21 07:59:00;;;;;;;;;;;;;;;20.10;85.55;95228.59;10474768;28;2290;-71
2023/05/21 08:04:04;;;;;;;;;;;;;;;20.35;87.10;95234.75;10483518;28;2079;-72
2023/05/21 08:09:07;;;;;;;;;;;;;;;20.29;89.83;95239.66;10482140;28;1957;-77
2023/05/21 08:14:10;;;;;;;;;;;;;;;20.45;90.59;95237.81;10481682;28;2056;-71
2023/05/21 08:19:13;;;;;;;;;;;;;;;20.75;90.63;95251.84;10481278;28;1991;-70
2023/05/21 08:24:15;;;;;;;;;;;;;;;20.83;93.72;95241.91;10476860;28;1975;-71
2023/05/21 08:29:18;;;;;;;;;;;;;;;21.11;95.47;95250.00;10478299;28;1959;-69
2023/05/21 08:34:21;;;;;;;;;;;;;;;21.29;92.83;95256.72;10476073;28;1948;-72
2023/05/21 08:39:23;;;;;;;;;;;;;;;21.15;92.27;95250.88;10482169;28;1904;-69
2023/05/21 08:44:26;;;;;;;;;;;;;;;21.68;90.24;95251.34;10481582;28;2021;-70
2023/05/21 08:49:29;;;;;;;;;;;;;;;21.43;93.74;95255.47;10477274;28;1880;-69
2023/05/21 08:54:32;;;;;;;;;;;;;;;21.77;94.69;95251.97;10483454;28;2194;-71
2023/05/21 08:59:36;;;;;;;;;;;;;;;21.59;96.93;95254.28;10480734;28;2024;-69
2023/05/21 09:04:39;;;;;;;;;;;;;;;22.25;94.90;95262.75;10482090;28;2019;-70
2023/05/21 09:09:41;;;;;;;;;;;;;;;21.84;98.20;95259.53;10475692;28;2030;-72
2023/05/21 09:14:44;;;;;;;;;;;;;;;22.42;96.39;95248.63;10478934;28;2004;-71
2023/05/21 09:19:47;;;;;;;;;;;;;;;22.93;95.18;95253.88;10480579;28;1976;-70
2023/05/21 09:24:50;;;;;;;;;;;;;;;22.97;91.54;95253.94;10483180;28;1920;-69
2023/05/21 09:29:52;;;;;;;;;;;;;;;22.51;94.34;95254.66;10476904;28;1947;-71
2023/05/21 09:34:55;;;;;;;;;;;;;;;23.56;89.11;95252.53;10479812;28;1901;-70
2023/05/21 09:39:57;;;;;;;;;;;;;;;24.23;81.85;95245.22;10474199;28;4465;-70
2023/05/21 09:45:00;;;;;;;;;;;;;;;24.90;74.12;95240.88;10476217;28;2002;-71
2023/05/21 09:50:03;;;;;;;;;;;;;;;25.02;75.94;95243.34;10473688;28;2090;-72
2023/05/21 09:55:06;;;;;;;;;;;;;;;24.68;68.77;95234.38;10480406;28;2203;-75
2023/05/21 10:00:09;;;;;;;;;;;;;;;24.91;66.01;95236.97;10482711;28;1943;-76
2023/05/21 10:05:12;;;;;;;;;;;;;;;25.68;63.08;95229.72;10475724;28;1981;-75
2023/05/21 10:10:14;;;;;;;;;;;;;;;26.68;52.33;95225.50;10481681;28;1857;-75
2023/05/21 10:15:18;;;;;;;;;;;;;;;26.56;46.56;95226.66;10479201;28;1976;-76
2023/05/21 10:20:21;;;;;;;;;;;;;;;26.23;42.73;95224.16;10476343;28;1915;-75
2023/05/21 10:25:23;;;;;;;;;;;;;;;26.12;42.47;95222.13;10474613;28;1969;-76
2023/05/21 10:30:26;;;;;;;;;;;;;;;25.61;41.75;95220.25;10470515;28;1903;-74
2023/05/21 10:35:28;;;;;;;;;;;;;;;25.10;41.58;95223.03;10478875;28;1932;-76
2023/05/21 10:40:30;;;;;;;;;;;;;;;26.28;40.62;95213.53;10478122;28;4537;-74
2023/05/21 10:45:33;;;;;;;;;;;;;;;26.34;39.40;95220.25;10472640;28;1965;-73
2023/05/21 10:50:35;;;;;;;;;;;;;;;25.85;40.82;95207.84;10471923;28;2171;-72
2023/05/21 10:55:38;;;;;;;;;;;;;;;25.58;41.11;95210.03;10474761;28;1971;-71
2023/05/21 11:00:41;;;;;;;;;;;;;;;25.07;40.28;95212.78;10474325;28;1901;-70
2023/05/21 11:05:43;;;;;;;;;;;;;;;24.86;41.16;95212.56;10477654;28;1983;-70
2023/05/21 11:10:46;;;;;;;;;;;;;;;24.96;39.47;95212.66;10485791;28;1896;-70
2023/05/21 11:15:49;;;;;;;;;;;;;;;25.11;38.66;95208.09;10484607;28;1789;-70
2023/05/21 11:20:52;;;;;;;;;;;;;;;25.41;36.63;95209.91;10484509;28;1849;-71
2023/05/21 11:25:54;;;;;;;;;;;;;;;26.12;36.51;95204.81;10478635;28;1991;-70
2023/05/21 11:30:56;;;;;;;;;;;;;;;26.71;36.09;95202.66;10482052;28;1916;-70
2023/05/21 11:35:59;;;;;;;;;;;;;;;26.98;36.89;95199.56;10487388;28;1829;-70
2023/05/21 11:41:02;;;;;;;;;;;;;;;26.77;37.11;95201.09;10485476;28;4450;-70
2023/05/21 11:46:05;;;;;;;;;;;;;;;27.06;36.57;95192.88;10480384;28;2067;-69
2023/05/21 11:51:07;;;;;;;;;;;;;;;26.77;35.20;95184.53;10480418;28;1850;-70
2023/05/21 11:56:10;;;;;;;;;;;;;;;26.81;34.48;95196.38;10486232;28;1968;-71
2023/05/21 12:01:13;;;;;;;;;;;;;;;26.59;33.57;95190.03;10481767;28;1857;-71
2023/05/21 12:06:16;;;;;;;;;;;;;;;27.70;33.55;95185.34;10486783;28;1953;-71
2023/05/21 12:11:19;;;;;;;;;;;;;;;28.31;31.86;95178.78;10485711;28;1877;-70
2023/05/21 12:16:22;;;;;;;;;;;;;;;27.22;28.06;95187.72;10478862;28;1913;-70
2023/05/21 12:21:25;;;;;;;;;;;;;;;27.17;30.07;95185.41;10480399;28;1985;-70
2023/05/21 12:26:27;;;;;;;;;;;;;;;27.51;30.18;95182.19;10482462;28;1990;-71
2023/05/21 12:31:31;;;;;;;;;;;;;;;28.02;30.69;95173.41;10482800;28;1829;-70
2023/05/21 12:36:36;;;;;;;;;;;;;;;27.93;32.04;95171.06;10473945;28;1896;-71
2023/05/21 12:41:39;;;;;;;;;;;;;;;28.27;32.29;95173.28;10473350;28;4409;-71
2023/05/21 12:46:42;;;;;;;;;;;;;;;28.57;30.00;95158.13;10471730;28;2015;-73
2023/05/21 12:51:44;;;;;;;;;;;;;;;28.02;28.68;95167.88;10474609;28;1946;-72
2023/05/21 12:56:47;;;;;;;;;;;;;;;27.13;29.24;95173.56;10479417;28;1718;-72
2023/05/21 13:01:49;;;;;;;;;;;;;;;27.44;30.32;95171.97;10481921;28;1881;-71
2023/05/21 13:06:52;;;;;;;;;;;;;;;26.47;32.62;95173.09;10473833;28;1983;-73
2023/05/21 13:11:54;;;;;;;;;;;;;;;26.40;32.89;95162.81;10471652;28;1876;-71
2023/05/21 13:16:56;;;;;;;;;;;;;;;25.94;32.69;95165.41;10473875;28;1951;-70
2023/05/21 13:21:59;;;;;;;;;;;;;;;26.11;31.97;95159.16;10479754;28;1898;-71
2023/05/21 13:27:01;;;;;;;;;;;;;;;26.20;32.06;95170.59;10476209;28;2162;-71
2023/05/21 13:32:04;;;;;;;;;;;;;;;26.38;31.69;95168.69;10477153;28;1967;-72
2023/05/21 13:37:07;;;;;;;;;;;;;;;26.69;31.31;95149.88;10474767;28;2068;-71
2023/05/21 13:42:10;;;;;;;;;;;;;;;27.30;30.40;95147.94;10476640;28;4284;-70
2023/05/21 13:47:12;;;;;;;;;;;;;;;27.13;29.95;95141.25;10474068;28;1910;-73
2023/05/21 13:52:15;;;;;;;;;;;;;;;26.82;32.11;95148.31;10477465;28;1790;-70
2023/05/21 13:57:18;;;;;;;;;;;;;;;26.94;31.78;95153.44;10472902;28;1901;-71
2023/05/21 14:02:21;;;;;;;;;;;;;;;26.93;31.31;95151.09;10480151;28;1862;-71
2023/05/21 14:07:24;;;;;;;;;;;;;;;27.30;32.03;95155.44;10476236;28;2054;-71
2023/05/21 14:12:27;;;;;;;;;;;;;;;27.29;33.90;95149.09;10478021;28;1893;-70
2023/05/21 14:17:29;;;;;;;;;;;;;;;27.34;35.94;95145.94;10469993;28;1839;-71
2023/05/21 14:22:32;;;;;;;;;;;;;;;27.04;35.18;95148.31;10476021;28;1901;-71
2023/05/21 14:27:36;;;;;;;;;;;;;;;26.79;35.44;95160.13;10471819;28;1984;-72
2023/05/21 14:32:39;;;;;;;;;;;;;;;27.14;34.34;95147.53;10480735;28;1972;-71
2023/05/21 14:37:41;;;;;;;;;;;;;;;27.11;35.74;95148.34;10474465;28;1787;-71
2023/05/21 14:42:44;;;;;;;;;;;;;;;26.63;36.70;95140.41;10479384;28;4386;-71
2023/05/21 14:47:47;;;;;;;;;;;;;;;26.58;37.06;95143.56;10477632;28;2067;-71
2023/05/21 14:52:50;;;;;;;;;;;;;;;26.99;36.37;95137.69;10477138;28;2255;-71
2023/05/21 14:57:52;;;;;;;;;;;;;;;26.64;35.45;95130.97;10472293;28;1858;-70
2023/05/21 15:02:55;;;;;;;;;;;;;;;26.38;35.87;95132.88;10472068;28;1917;-71
2023/05/21 15:07:58;;;;;;;;;;;;;;;26.18;36.09;95131.66;10470622;28;1989;-71
2023/05/21 15:13:01;;;;;;;;;;;;;;;26.14;37.15;95144.59;10474411;28;1861;-71
2023/05/21 15:18:03;;;;;;;;;;;;;;;26.12;39.27;95146.97;10476069;28;1889;-71
2023/05/21 15:23:06;;;;;;;;;;;;;;;25.65;40.12;95134.19;10473658;28;1894;-71
2023/05/21 15:28:19;;;;;;;;;;;;;;;25.86;38.77;95137.84;10469985;28;2163;-71
2023/05/21 15:33:22;;;;;;;;;;;;;;;25.80;38.93;95138.59;10473681;28;1794;-71
2023/05/21 15:38:25;;;;;;;;;;;;;;;25.75;39.07;95134.25;10475855;28;1890;-74
2023/05/21 15:43:27;;;;;;;;;;;;;;;25.74;38.95;95126.38;10473745;28;4406;-72
2023/05/21 15:48:29;;;;;;;;;;;;;;;25.37;39.37;95121.03;10475609;28;1992;-74
2023/05/21 15:53:32;;;;;;;;;;;;;;;25.28;39.65;95122.19;10480289;28;2114;-70
2023/05/21 15:58:34;;;;;;;;;;;;;;;25.52;39.44;95125.47;10478330;28;1858;-70
2023/05/21 16:03:37;;;;;;;;;;;;;;;25.45;39.54;95117.16;10478447;28;1885;-71
2023/05/21 16:08:39;;;;;;;;;;;;;;;25.17;39.87;95110.31;10480834;28;1914;-73
2023/05/21 16:13:42;;;;;;;;;;;;;;;25.03;40.87;95118.44;10477845;28;1818;-72
2023/05/21 16:18:44;;;;;;;;;;;;;;;25.03;40.17;95118.44;10485285;28;1782;-76
2023/05/21 16:23:46;;;;;;;;;;;;;;;24.91;41.34;95118.75;10479613;28;1838;-75
2023/05/21 16:28:49;;;;;;;;;;;;;;;25.06;41.55;95113.00;10481662;28;2104;-74
2023/05/21 16:33:52;;;;;;;;;;;;;;;24.84;41.81;95111.25;10481307;28;1912;-71
2023/05/21 16:38:54;;;;;;;;;;;;;;;24.79;42.00;95109.63;10481518;28;1900;-71
2023/05/21 16:43:56;;;;;;;;;;;;;;;24.55;42.87;95104.72;10478514;28;4375;-74
2023/05/21 16:48:59;;;;;;;;;;;;;;;24.42;43.30;95108.91;10476598;28;1910;-71
2023/05/21 16:54:03;;;;;;;;;;;;;;;24.26;43.66;95109.94;10481328;28;1873;-71
2023/05/21 16:59:06;;;;;;;;;;;;;;;24.14;44.80;95112.94;10476120;28;1838;-72
2023/05/21 17:04:08;;;;;;;;;;;;;;;24.15;44.30;95105.50;10482425;28;1890;-72
2023/05/21 17:09:11;;;;;;;;;;;;;;;24.11;43.41;95104.66;10481290;28;1922;-74
2023/05/21 17:14:14;;;;;;;;;;;;;;;24.04;42.79;95099.88;10485438;28;2011;-72
2023/05/21 17:19:36;;;;;;;;;;;;;;;23.89;43.84;95106.38;10480260;28;1856;-71
2023/05/21 17:24:38;;;;;;;;;;;;;;;23.65;46.45;95110.41;10479283;28;2102;-72
2023/05/21 17:29:41;;;;;;;;;;;;;;;23.42;50.42;95110.50;10479015;28;1993;-71
2023/05/21 17:34:44;;;;;;;;;;;;;;;23.29;56.73;95107.19;10474099;28;1903;-71
2023/05/21 17:39:47;;;;;;;;;;;;;;;23.11;65.29;95111.63;10476795;28;4398;-72
2023/05/21 17:44:50;;;;;;;;;;;;;;;22.85;79.76;95121.41;10474872;28;2020;-71
2023/05/21 17:49:52;;;;;;;;;;;;;;;22.66;91.45;95130.50;10471713;28;1909;-71
2023/05/21 17:54:55;;;;;;;;;;;;;;;22.48;96.90;95125.88;10477183;28;1986;-70
2023/05/21 17:59:57;;;;;;;;;;;;;;;22.36;100.00;95127.63;10473251;28;1867;-71
2023/05/21 18:05:00;;;;;;;;;;;;;;;22.16;100.00;95139.00;10475721;28;1910;-72
2023/05/21 18:10:02;;;;;;;;;;;;;;;21.95;100.00;95140.16;10471691;28;1550;-72
2023/05/21 18:15:07;;;;;;;;;;;;;;;21.76;100.00;95143.69;10478772;28;1487;-71
2023/05/21 18:20:10;;;;;;;;;;;;;;;21.54;100.00;95145.19;10474895;28;2076;-72
2023/05/21 18:25:12;;;;;;;;;;;;;;;21.32;100.00;95145.88;10479271;28;1906;-71
2023/05/21 18:30:15;;;;;;;;;;;;;;;21.15;100.00;95146.25;10478959;28;1499;-70
2023/05/21 18:35:17;;;;;;;;;;;;;;;20.94;100.00;95143.81;10483239;28;1520;-75
2023/05/21 18:40:21;;;;;;;;;;;;;;;20.79;100.00;95142.69;10471176;28;4414;-71
2023/05/21 18:45:24;;;;;;;;;;;;;;;20.61;100.00;95144.19;10472507;28;1969;-70
2023/05/21 18:50:26;;;;;;;;;;;;;;;20.42;100.00;95148.41;10476515;28;1483;-70
2023/05/21 18:55:29;;;;;;;;;;;;;;;20.22;100.00;95154.88;10477231;28;1460;-70
2023/05/21 19:00:32;;;;;;;;;;;;;;;20.11;100.00;95170.97;10462156;28;1622;-71
2023/05/21 19:05:35;;;;;;;;;;;;;;;19.93;100.00;95166.97;10472619;28;1976;-72
2023/05/21 19:10:38;;;;;;;;;;;;;;;19.76;100.00;95169.97;10473528;28;1504;-72
2023/05/21 19:15:45;;;;;;;;;;;;;;;19.68;100.00;95169.78;10469999;28;2008;-72
2023/05/21 19:20:48;;;;;;;;;;;;;;;19.50;100.00;95173.91;10477429;28;1471;-71
2023/05/21 19:25:51;;;;;;;;;;;;;;;19.44;100.00;95180.72;10482542;28;1922;-72
2023/05/21 19:30:53;;;;;;;;;;;;;;;19.27;100.00;95189.16;10486311;28;1500;-72
2023/05/21 19:35:56;;;;;;;;;;;;;;;19.10;100.00;95190.22;10486683;28;1460;-71
2023/05/21 19:40:58;;;;;;;;;;;;;;;18.99;100.00;95186.34;10486566;28;4426;-71
2023/05/21 19:46:01;;;;;;;;;;;;;;;18.83;100.00;95187.03;10487605;28;1955;-71
2023/05/21 19:51:03;;;;;;;;;;;;;;;18.64;100.00;95192.22;10482665;28;1830;-71
2023/05/21 19:56:06;;;;;;;;;;;;;;;18.48;100.00;95196.72;10478131;28;1905;-74
2023/05/21 20:01:08;;;;;;;;;;;;;;;18.28;100.00;95193.75;10479678;28;1936;-71
2023/05/21 20:06:11;;;;;;;;;;;;;;;18.20;100.00;95202.00;10480203;28;1968;-72
2023/05/21 20:11:13;;;;;;;;;;;;;;;18.17;100.00;95199.94;10479877;28;2068;-73
2023/05/21 20:16:17;;;;;;;;;;;;;;;18.07;100.00;95201.97;10485807;28;1886;-73
2023/05/21 20:21:20;;;;;;;;;;;;;;;17.97;100.00;95196.13;10479998;28;1930;-73
2023/05/21 20:26:24;;;;;;;;;;;;;;;17.89;100.00;95202.44;10477599;28;1913;-71
2023/05/21 20:31:27;;;;;;;;;;;;;;;17.81;100.00;95193.22;10472640;28;1915;-70
2023/05/21 20:36:32;;;;;;;;;;;;;;;17.69;100.00;95196.66;10478477;28;1896;-72
2023/05/21 20:41:36;;;;;;;;;;;;;;;17.57;100.00;95193.91;10482864;28;4441;-75
2023/05/21 20:46:38;;;;;;;;;;;;;;;17.50;100.00;95194.44;10478455;28;1971;-72
2023/05/21 20:51:41;;;;;;;;;;;;;;;17.46;100.00;95193.47;10478964;28;1909;-71
2023/05/21 20:56:43;;;;;;;;;;;;;;;17.39;100.00;95193.22;10478498;28;1943;-72
2023/05/21 21:01:46;;;;;;;;;;;;;;;17.20;100.00;95201.81;10476711;28;1882;-72
2023/05/21 21:06:49;;;;;;;;;;;;;;;17.16;100.00;95210.94;10475861;28;2085;-75
2023/05/21 21:11:51;;;;;;;;;;;;;;;16.94;100.00;95215.53;10476756;28;1791;-72
2023/05/21 21:16:53;;;;;;;;;;;;;;;16.86;100.00;95213.69;10466887;28;1842;-72
2023/05/21 21:21:56;;;;;;;;;;;;;;;16.89;100.00;95212.22;10475687;28;1794;-73
2023/05/21 21:26:58;;;;;;;;;;;;;;;16.91;100.00;95210.75;10468446;28;1962;-72
2023/05/21 21:32:00;;;;;;;;;;;;;;;16.73;100.00;95207.34;10476754;28;1884;-73
2023/05/21 21:37:03;;;;;;;;;;;;;;;16.64;100.00;95219.31;10475468;28;1842;-72
2023/05/21 21:42:05;;;;;;;;;;;;;;;16.55;100.00;95215.84;10479077;28;4678;-73
2023/05/21 21:47:07;;;;;;;;;;;;;;;16.42;100.00;95223.88;10479839;28;1977;-72
2023/05/21 21:52:11;;;;;;;;;;;;;;;16.24;100.00;95224.22;10477646;28;1882;-73
2023/05/21 21:57:13;;;;;;;;;;;;;;;16.23;100.00;95219.94;10472602;28;1910;-73
2023/05/21 22:02:16;;;;;;;;;;;;;;;16.21;100.00;95218.31;10469573;28;2048;-72
2023/05/21 22:07:19;;;;;;;;;;;;;;;16.10;100.00;95219.78;10485865;28;1902;-72
2023/05/21 22:12:21;;;;;;;;;;;;;;;15.87;100.00;95229.22;10477421;28;1826;-72
2023/05/21 22:17:24;;;;;;;;;;;;;;;15.93;100.00;95225.22;10473511;28;1825;-73
2023/05/21 22:22:27;;;;;;;;;;;;;;;15.81;100.00;95225.88;10475245;28;1885;-72
2023/05/21 22:27:29;;;;;;;;;;;;;;;15.64;100.00;95237.50;10474461;28;2063;-72
2023/05/21 22:32:32;;;;;;;;;;;;;;;15.56;100.00;95229.34;10478868;28;1885;-75
2023/05/21 22:37:36;;;;;;;;;;;;;;;15.41;100.00;95233.34;10480181;28;1987;-72
2023/05/21 22:42:38;;;;;;;;;;;;;;;15.33;100.00;95234.09;10479557;28;4632;-72
2023/05/21 22:47:40;;;;;;;;;;;;;;;15.31;100.00;95230.91;10479328;28;1918;-72
2023/05/21 22:52:43;;;;;;;;;;;;;;;15.17;100.00;95224.84;10477387;28;1846;-72
2023/05/21 22:57:45;;;;;;;;;;;;;;;15.04;100.00;95221.97;10475447;28;1841;-73
2023/05/21 23:02:48;;;;;;;;;;;;;;;14.97;100.00;95229.75;10488863;28;2027;-73
2023/05/21 23:07:54;;;;;;;;;;;;;;;14.89;100.00;95227.81;10492174;28;1911;-73
2023/05/21 23:12:56;;;;;;;;;;;;;;;14.72;100.00;95227.75;10492149;28;1837;-76
2023/05/21 23:17:59;;;;;;;;;;;;;;;14.65;100.00;95230.13;10484271;28;1838;-75
2023/05/21 23:23:02;;;;;;;;;;;;;;;14.59;100.00;95238.38;10489492;28;1865;-73
2023/05/21 23:28:04;;;;;;;;;;;;;;;14.49;100.00;95238.63;10490776;28;1902;-72
2023/05/21 23:33:06;;;;;;;;;;;;;;;14.34;100.00;95230.91;10486770;28;1850;-71
2023/05/21 23:38:09;;;;;;;;;;;;;;;14.25;100.00;95232.72;10486404;28;1885;-71
2023/05/21 23:43:12;;;;;;;;;;;;;;;14.07;100.00;95235.34;10493937;28;4562;-72
2023/05/21 23:48:14;;;;;;;;;;;;;;;14.09;100.00;95248.56;10489978;28;1977;-72
2023/05/21 23:53:17;;;;;;;;;;;;;;;14.14;100.00;95234.13;10490427;28;2039;-72
2023/05/21 23:58:19;;;;;;;;;;;;;;;14.29;100.00;95239.13;10489852;28;2169;-72
